Time;durP1;ratioP1;P1;durP2;ratioP2;P2;SDS_P1;SDS_P2;PMS_P1;PMS_P2;Temp;Humidity;BMP_temperature;BMP_pressure;BME280_temperature;BME280_humidity;BME280_pressure;Samples;Min_cycle;Max_cycle;Signal;HPM_P1;HPM_P2
2022/07/27 00:01:49;;;;;;;5.95;0.90;;;13.60;99.90;;;;;;5034223;28;20523;-79
2022/07/27 00:04:14;;;;;;;4.53;0.98;;;13.60;99.90;;;;;;5036824;28;20029;-79
2022/07/27 00:06:40;;;;;;;3.70;0.50;;;13.50;99.90;;;;;;5055764;28;20041;-80
2022/07/27 00:09:05;;;;;;;3.25;0.68;;;13.50;99.90;;;;;;5039722;28;20094;-79
2022/07/27 00:11:31;;;;;;;4.07;0.65;;;13.50;99.90;;;;;;5039604;28;20055;-80
2022/07/27 00:13:57;;;;;;;2.13;0.47;;;13.40;99.90;;;;;;5044876;28;20939;-79
2022/07/27 00:16:22;;;;;;;3.90;0.60;;;13.50;99.90;;;;;;5045901;28;20040;-79
2022/07/27 00:18:48;;;;;;;3.55;0.60;;;13.50;99.90;;;;;;5048807;28;20052;-79
2022/07/27 00:21:13;;;;;;;4.57;0.85;;;13.50;99.90;;;;;;5043160;28;20048;-79
2022/07/27 00:23:40;;;;;;;3.70;0.60;;;13.60;99.90;;;;;;5046657;28;20037;-79
2022/07/27 00:26:06;;;;;;;4.28;1.42;;;13.60;99.90;;;;;;5045868;28;20056;-81
2022/07/27 00:28:31;;;;;;;4.78;0.80;;;13.60;99.90;;;;;;5048555;28;20055;-79
2022/07/27 00:30:57;;;;;;;2.90;1.15;;;13.70;99.90;;;;;;5043988;28;20119;-79
2022/07/27 00:33:22;;;;;;;4.05;0.68;;;13.70;99.90;;;;;;5042722;28;20399;-80
2022/07/27 00:35:48;;;;;;;5.15;0.82;;;13.60;99.90;;;;;;5027391;28;20049;-80
2022/07/27 00:38:15;;;;;;;3.88;1.13;;;13.70;99.90;;;;;;5043680;28;20046;-79
2022/07/27 00:40:41;;;;;;;3.10;0.80;;;13.80;99.90;;;;;;5046238;28;20120;-81
2022/07/27 00:43:06;;;;;;;3.65;0.98;;;13.70;99.90;;;;;;5041416;28;20140;-79
2022/07/27 00:45:32;;;;;;;3.35;0.70;;;13.70;99.90;;;;;;5041421;28;20049;-80
2022/07/27 00:47:57;;;;;;;1.40;0.73;;;13.70;99.90;;;;;;5043799;28;20037;-80
2022/07/27 00:50:23;;;;;;;4.97;0.80;;;13.80;99.90;;;;;;5047411;28;20037;-80
2022/07/27 00:52:49;;;;;;;7.57;0.80;;;13.80;99.90;;;;;;5049055;28;20049;-80
2022/07/27 00:55:15;;;;;;;5.93;0.90;;;13.90;99.90;;;;;;5045419;28;20037;-80
2022/07/27 00:57:41;;;;;;;3.17;1.02;;;13.80;99.90;;;;;;5044495;28;20588;-80
2022/07/27 01:00:07;;;;;;;5.30;0.90;;;13.90;99.90;;;;;;5042333;28;20044;-81
2022/07/27 01:02:33;;;;;;;4.97;0.90;;;13.90;99.90;;;;;;5045795;28;20124;-79
2022/07/27 01:04:58;;;;;;;3.35;0.80;;;13.90;99.90;;;;;;5042069;28;20182;-79
2022/07/27 01:07:25;;;;;;;3.65;0.93;;;14.40;99.90;;;;;;5039463;28;20029;-80
2022/07/27 01:09:57;;;;;;;4.57;0.63;;;13.90;99.90;;;;;;5040144;28;20037;-81
2022/07/27 01:12:30;;;;;;;4.53;0.60;;;14.00;99.90;;;;;;5046417;28;20044;-80
2022/07/27 01:14:56;;;;;;;5.13;1.10;;;14.00;99.90;;;;;;5046573;28;20177;-81
2022/07/27 01:17:24;;;;;;;2.83;0.70;;;14.00;99.90;;;;;;5045998;28;20171;-80
2022/07/27 01:19:49;;;;;;;4.70;1.60;;;13.90;99.90;;;;;;5039699;28;20041;-79
2022/07/27 01:22:15;;;;;;;5.45;0.90;;;14.00;99.90;;;;;;5047363;28;20090;-79
2022/07/27 01:24:41;;;;;;;2.92;0.80;;;14.00;99.90;;;;;;5045449;28;20040;-80
2022/07/27 01:27:07;;;;;;;4.15;0.80;;;14.00;99.90;;;;;;5044338;28;20495;-82
2022/07/27 01:29:34;;;;;;;3.15;0.80;;;14.00;99.90;;;;;;5045147;28;20040;-81
2022/07/27 01:32:00;;;;;;;3.47;0.80;;;14.00;99.90;;;;;;5046657;28;20139;-80
2022/07/27 01:34:25;;;;;;;5.97;1.20;;;14.00;99.90;;;;;;5044272;28;20495;-80
2022/07/27 01:36:51;;;;;;;3.47;1.10;;;13.90;99.90;;;;;;5050660;28;20037;-80
2022/07/27 01:39:17;;;;;;;3.58;0.75;;;13.90;99.90;;;;;;5044593;28;20029;-81
2022/07/27 01:41:44;;;;;;;2.60;0.70;;;13.80;99.90;;;;;;5046955;28;20572;-80
2022/07/27 01:44:09;;;;;;;2.58;0.50;;;13.70;99.90;;;;;;5048099;28;20519;-80
2022/07/27 01:46:35;;;;;;;3.03;0.70;;;13.70;99.90;;;;;;5048996;28;20079;-80
2022/07/27 01:49:01;;;;;;;3.60;0.70;;;13.60;99.90;;;;;;5028806;28;20059;-80
2022/07/27 01:51:27;;;;;;;3.00;0.50;;;13.50;99.90;;;;;;5049232;28;20061;-79
2022/07/27 01:53:53;;;;;;;3.53;0.75;;;13.40;99.90;;;;;;5044986;28;20040;-79
2022/07/27 01:56:18;;;;;;;1.40;0.77;;;13.40;99.90;;;;;;5042247;28;20128;-79
2022/07/27 01:58:44;;;;;;;3.45;0.40;;;13.20;99.90;;;;;;5037346;28;20129;-79
2022/07/27 02:01:09;;;;;;;3.65;0.75;;;13.20;99.90;;;;;;5040412;28;20087;-79
2022/07/27 02:03:35;;;;;;;2.78;0.57;;;13.10;99.90;;;;;;5045605;28;20487;-79
2022/07/27 02:06:02;;;;;;;1.10;0.40;;;13.00;99.90;;;;;;5042426;28;20106;-80
2022/07/27 02:08:28;;;;;;;2.25;0.50;;;12.90;99.90;;;;;;5039218;28;20053;-80
2022/07/27 02:13:37;;;;;;;2.40;0.55;;;12.80;99.90;;;;;;5046395;28;20045;-79
2022/07/27 02:16:03;;;;;;;3.20;0.73;;;12.70;99.90;;;;;;5045812;28;20584;-79
2022/07/27 02:18:29;;;;;;;1.60;0.70;;;12.70;99.90;;;;;;5027097;28;20041;-80
2022/07/27 02:20:54;;;;;;;2.00;0.50;;;12.60;99.90;;;;;;5026201;28;20053;-80
2022/07/27 02:23:20;;;;;;;2.88;0.90;;;12.60;99.90;;;;;;5028623;28;20044;-80
2022/07/27 02:25:46;;;;;;;2.03;0.45;;;12.50;99.90;;;;;;5042086;28;20041;-80
2022/07/27 02:28:11;;;;;;;3.28;0.65;;;12.50;99.90;;;;;;5043623;28;20041;-80
2022/07/27 02:30:37;;;;;;;4.65;0.60;;;12.40;99.90;;;;;;5041706;28;20044;-80
2022/07/27 02:33:03;;;;;;;3.70;0.88;;;12.40;99.90;;;;;;5044307;28;20049;-79
2022/07/27 02:35:29;;;;;;;6.28;0.93;;;12.30;99.90;;;;;;5028542;28;20051;-81
2022/07/27 02:37:55;;;;;;;5.18;0.57;;;12.30;99.90;;;;;;5031831;28;20049;-79
2022/07/27 02:40:22;;;;;;;5.75;0.80;;;12.20;99.90;;;;;;5026712;28;20045;-79
2022/07/27 02:42:47;;;;;;;6.47;0.85;;;12.10;99.90;;;;;;5039155;28;20106;-81
2022/07/27 02:45:14;;;;;;;3.35;0.88;;;12.00;99.90;;;;;;5028762;28;20475;-80
2022/07/27 02:47:39;;;;;;;2.75;0.60;;;12.00;99.90;;;;;;5040130;28;20121;-79
2022/07/27 02:50:06;;;;;;;2.40;0.55;;;12.00;99.90;;;;;;5039956;28;20061;-79
2022/07/27 02:52:32;;;;;;;3.90;0.70;;;12.00;99.90;;;;;;5040024;28;20045;-79
2022/07/27 02:54:58;;;;;;;2.55;0.50;;;12.00;99.90;;;;;;5039625;28;20895;-79
2022/07/27 02:57:23;;;;;;;2.55;0.50;;;11.90;99.90;;;;;;5039750;28;20045;-79
2022/07/27 02:59:49;;;;;;;2.50;0.68;;;11.90;99.90;;;;;;5039898;28;20213;-79
2022/07/27 03:02:15;;;;;;;3.75;0.93;;;11.90;99.90;;;;;;5042385;28;20496;-79
2022/07/27 03:04:40;;;;;;;3.83;1.15;;;11.90;99.90;;;;;;5040337;28;20081;-80
2022/07/27 03:07:06;;;;;;;6.10;0.90;;;11.90;99.90;;;;;;5035454;28;20041;-79
2022/07/27 03:09:31;;;;;;;3.72;0.82;;;11.90;99.90;;;;;;5037430;28;21770;-79
2022/07/27 03:11:57;;;;;;;2.92;1.13;;;11.90;99.90;;;;;;5037947;28;20086;-79
2022/07/27 03:14:23;;;;;;;5.53;0.95;;;11.90;99.90;;;;;;5042507;28;20074;-79
2022/07/27 03:16:48;;;;;;;3.53;1.20;;;12.00;99.90;;;;;;5041197;28;20117;-79
2022/07/27 03:19:14;;;;;;;3.45;1.17;;;12.00;99.90;;;;;;5040445;28;20043;-79
2022/07/27 03:21:39;;;;;;;5.35;1.42;;;12.00;99.90;;;;;;5038489;28;20107;-79
2022/07/27 03:24:05;;;;;;;5.10;1.13;;;12.10;99.90;;;;;;5040284;28;20330;-79
2022/07/27 03:26:32;;;;;;;5.88;1.20;;;12.10;99.90;;;;;;5039526;28;20633;-79
2022/07/27 03:28:58;;;;;;;4.00;1.10;;;12.10;99.90;;;;;;5039084;28;20053;-80
2022/07/27 03:31:23;;;;;;;4.35;1.30;;;12.10;99.90;;;;;;5023756;28;20487;-80
2022/07/27 03:33:49;;;;;;;4.03;0.98;;;12.00;99.90;;;;;;5042082;28;20148;-79
2022/07/27 03:36:14;;;;;;;2.50;0.98;;;11.90;99.90;;;;;;5040219;28;20048;-79
2022/07/27 03:38:40;;;;;;;2.30;0.73;;;11.80;99.90;;;;;;5040196;28;20560;-79
2022/07/27 03:41:06;;;;;;;3.13;0.63;;;11.80;99.90;;;;;;5032503;28;20079;-81
2022/07/27 03:43:32;;;;;;;3.20;0.80;;;11.80;99.90;;;;;;5039836;28;20037;-79
2022/07/27 03:45:57;;;;;;;4.35;0.80;;;11.80;99.90;;;;;;5038841;28;20047;-79
2022/07/27 03:48:23;;;;;;;4.68;0.85;;;11.90;99.90;;;;;;5040585;28;20044;-79
2022/07/27 03:50:49;;;;;;;8.77;1.42;;;12.00;99.90;;;;;;5035774;28;20059;-79
2022/07/27 03:53:16;;;;;;;4.85;0.90;;;12.10;99.90;;;;;;5038655;28;20131;-79
2022/07/27 03:55:42;;;;;;;6.22;0.90;;;12.20;99.90;;;;;;5041235;28;20067;-81
2022/07/27 03:58:07;;;;;;;5.90;0.93;;;12.30;99.90;;;;;;5037259;28;20045;-79
2022/07/27 04:00:33;;;;;;;2.70;1.08;;;12.30;99.90;;;;;;5031570;28;20053;-82
2022/07/27 04:02:58;;;;;;;3.17;0.80;;;12.30;99.90;;;;;;5038404;28;20048;-81
2022/07/27 04:05:24;;;;;;;3.13;0.90;;;12.30;99.90;;;;;;5042289;28;20153;-79
2022/07/27 04:07:50;;;;;;;6.03;1.75;;;12.30;99.90;;;;;;5040426;28;20102;-79
2022/07/27 04:10:15;;;;;;;3.75;0.90;;;12.30;99.90;;;;;;5036348;28;20037;-79
2022/07/27 04:12:41;;;;;;;3.97;1.00;;;12.30;99.90;;;;;;5018463;28;20152;-80
2022/07/27 04:15:07;;;;;;;3.38;1.30;;;12.30;99.90;;;;;;5036524;28;20037;-79
2022/07/27 04:17:33;;;;;;;3.33;1.00;;;12.30;99.90;;;;;;5038141;28;20049;-79
2022/07/27 04:19:58;;;;;;;5.93;1.38;;;12.40;99.90;;;;;;5040510;28;20426;-79
2022/07/27 04:22:24;;;;;;;3.50;0.80;;;12.40;99.90;;;;;;5036490;28;20083;-80
2022/07/27 04:24:49;;;;;;;3.25;0.90;;;12.40;99.90;;;;;;5039357;28;20099;-82
2022/07/27 04:27:15;;;;;;;2.22;0.95;;;12.40;99.90;;;;;;5039997;28;20491;-79
2022/07/27 04:29:40;;;;;;;3.92;1.20;;;12.40;99.90;;;;;;5038544;28;20037;-79
2022/07/27 04:32:06;;;;;;;3.92;1.02;;;12.40;99.90;;;;;;5031862;28;20045;-82
2022/07/27 04:34:32;;;;;;;4.57;1.08;;;12.40;99.90;;;;;;5038179;28;20068;-79
2022/07/27 04:36:57;;;;;;;8.48;1.40;;;12.40;99.90;;;;;;5040662;28;20041;-80
2022/07/27 04:39:23;;;;;;;5.10;1.20;;;12.40;99.90;;;;;;5039030;28;20055;-79
2022/07/27 04:41:48;;;;;;;4.57;1.30;;;12.50;99.90;;;;;;5036646;28;20061;-80
2022/07/27 04:44:14;;;;;;;8.00;1.33;;;12.50;99.90;;;;;;5037938;28;20480;-80
2022/07/27 04:46:40;;;;;;;3.13;1.50;;;12.60;99.90;;;;;;5036077;28;20091;-79
2022/07/27 04:49:05;;;;;;;5.07;1.08;;;12.60;99.90;;;;;;5038787;28;20052;-79
2022/07/27 04:51:31;;;;;;;3.33;1.08;;;12.70;99.90;;;;;;5040209;28;20115;-79
2022/07/27 04:53:56;;;;;;;8.18;1.50;;;12.70;99.90;;;;;;5039057;28;20064;-80
2022/07/27 04:56:22;;;;;;;4.28;1.13;;;12.80;99.90;;;;;;5038162;28;20080;-79
2022/07/27 04:58:47;;;;;;;8.82;1.60;;;12.80;99.90;;;;;;5040871;28;20115;-79
2022/07/27 05:01:13;;;;;;;3.80;0.77;;;12.90;99.90;;;;;;5037021;28;20073;-79
2022/07/27 05:03:41;;;;;;;4.32;1.30;;;12.90;99.90;;;;;;5040821;28;20044;-79
2022/07/27 05:06:06;;;;;;;5.75;1.20;;;13.00;99.90;;;;;;5052271;28;20163;-79
2022/07/27 05:08:32;;;;;;;4.15;0.98;;;13.00;99.90;;;;;;5042961;28;20123;-79
2022/07/27 05:10:58;;;;;;;2.38;1.13;;;13.00;99.90;;;;;;5041251;28;20060;-78
2022/07/27 05:13:23;;;;;;;6.53;1.10;;;13.10;99.90;;;;;;5044734;28;20049;-82
2022/07/27 05:15:49;;;;;;;7.72;0.93;;;13.20;99.90;;;;;;5038793;28;20048;-79
2022/07/27 05:18:14;;;;;;;7.93;2.17;;;13.20;99.90;;;;;;5045145;28;20045;-79
2022/07/27 05:20:40;;;;;;;5.30;0.93;;;13.30;99.90;;;;;;5040591;28;20107;-80
2022/07/27 05:23:05;;;;;;;6.68;1.27;;;13.30;99.90;;;;;;5043593;28;20037;-79
2022/07/27 05:25:31;;;;;;;8.90;1.08;;;13.40;99.90;;;;;;5060030;28;20036;-79
2022/07/27 05:27:57;;;;;;;6.97;1.00;;;13.50;99.90;;;;;;5036311;28;20490;-79
2022/07/27 05:30:23;;;;;;;4.47;1.45;;;13.50;99.90;;;;;;5040225;28;20048;-79
2022/07/27 05:32:49;;;;;;;5.72;1.15;;;13.60;99.90;;;;;;5040989;28;20305;-80
2022/07/27 05:35:14;;;;;;;5.00;1.05;;;13.90;99.90;;;;;;5042949;28;20029;-79
2022/07/27 05:37:40;;;;;;;8.00;0.93;;;13.80;99.90;;;;;;5036809;28;20037;-79
2022/07/27 05:40:07;;;;;;;11.23;1.20;;;13.80;99.90;;;;;;5044589;28;20041;-79
2022/07/27 05:42:33;;;;;;;5.57;0.90;;;13.80;99.90;;;;;;5039513;28;20132;-79
2022/07/27 05:44:59;;;;;;;5.30;1.20;;;13.90;99.90;;;;;;5027273;28;20113;-79
2022/07/27 05:47:24;;;;;;;7.13;1.15;;;14.00;99.90;;;;;;5042323;28;20039;-81
2022/07/27 05:49:53;;;;;;;4.22;1.20;;;14.00;99.90;;;;;;5035491;28;20495;-80
2022/07/27 05:52:19;;;;;;;6.00;1.48;;;14.00;99.90;;;;;;5026044;28;20126;-84
2022/07/27 05:54:45;;;;;;;4.65;0.85;;;14.10;99.90;;;;;;5041031;28;20053;-80
2022/07/27 05:57:14;;;;;;;5.95;1.30;;;14.20;99.90;;;;;;5034730;28;20052;-82
2022/07/27 05:59:39;;;;;;;5.95;1.38;;;14.30;99.90;;;;;;5054417;28;20515;-79
2022/07/27 06:02:05;;;;;;;4.97;1.23;;;14.30;99.90;;;;;;5042200;28;20051;-80
2022/07/27 06:04:31;;;;;;;7.43;1.08;;;14.40;99.90;;;;;;5039979;28;20029;-79
2022/07/27 06:09:40;;;;;;;5.78;1.13;;;14.50;99.90;;;;;;5039739;28;20056;-79
2022/07/27 06:12:07;;;;;;;6.13;1.30;;;14.50;99.90;;;;;;5038671;28;20046;-79
2022/07/27 06:14:32;;;;;;;13.27;1.67;;;14.50;99.90;;;;;;5042496;28;20416;-79
2022/07/27 06:16:58;;;;;;;11.63;1.23;;;14.60;99.90;;;;;;5042583;28;20048;-79
2022/07/27 06:19:23;;;;;;;6.20;1.10;;;14.60;99.90;;;;;;5037208;28;20048;-79
2022/07/27 06:21:49;;;;;;;9.90;1.27;;;14.60;99.90;;;;;;5042621;28;20048;-79
2022/07/27 06:24:16;;;;;;;5.82;1.27;;;14.60;99.90;;;;;;5040889;28;20128;-79
2022/07/27 06:26:42;;;;;;;5.95;1.65;;;14.70;99.90;;;;;;5044864;28;20032;-79
2022/07/27 06:29:08;;;;;;;7.50;1.38;;;14.80;99.90;;;;;;5043860;28;20060;-81
2022/07/27 06:31:33;;;;;;;5.75;0.98;;;14.80;99.90;;;;;;5043612;28;20201;-80
2022/07/27 06:33:59;;;;;;;6.75;1.10;;;14.90;99.90;;;;;;5034190;28;20672;-79
2022/07/27 06:36:24;;;;;;;4.20;1.00;;;14.90;99.90;;;;;;5038423;28;20037;-78
2022/07/27 06:38:50;;;;;;;3.22;1.00;;;15.00;99.90;;;;;;5035077;28;20040;-80
2022/07/27 06:41:16;;;;;;;2.50;0.68;;;15.00;99.90;;;;;;5034781;28;20093;-80
2022/07/27 06:43:41;;;;;;;3.80;0.77;;;15.10;99.90;;;;;;5039169;28;20483;-80
2022/07/27 06:46:11;;;;;;;4.57;0.60;;;15.10;99.90;;;;;;5034900;28;20036;-80
2022/07/27 06:48:40;;;;;;;4.43;0.63;;;15.20;99.90;;;;;;5033488;28;20041;-80
2022/07/27 06:51:06;;;;;;;4.25;0.63;;;15.30;99.90;;;;;;5032068;28;20094;-80
2022/07/27 06:53:32;;;;;;;5.75;1.33;;;15.40;99.90;;;;;;5037548;28;20458;-78
2022/07/27 06:56:02;;;;;;;4.20;0.95;;;15.40;99.90;;;;;;5021714;28;20053;-81
2022/07/27 06:58:30;;;;;;;6.18;1.30;;;15.50;99.90;;;;;;5038191;28;20427;-80
2022/07/27 07:00:57;;;;;;;5.53;0.50;;;15.60;99.90;;;;;;5037717;28;20056;-81
2022/07/27 07:03:23;;;;;;;5.25;1.23;;;15.60;99.90;;;;;;5048175;28;20067;-80
2022/07/27 07:05:49;;;;;;;2.67;0.60;;;15.60;99.90;;;;;;5052959;28;20376;-80
2022/07/27 07:08:15;;;;;;;2.70;0.75;;;15.60;99.90;;;;;;5034485;28;20053;-80
2022/07/27 07:10:43;;;;;;;6.82;0.73;;;15.70;99.90;;;;;;5033136;28;20059;-80
2022/07/27 07:13:08;;;;;;;5.03;0.75;;;15.80;99.90;;;;;;5039656;28;20503;-80
2022/07/27 07:15:36;;;;;;;7.88;0.93;;;15.90;99.90;;;;;;5034734;28;20041;-79
2022/07/27 07:18:03;;;;;;;6.72;1.05;;;16.00;99.90;;;;;;5033090;28;20041;-79
2022/07/27 07:20:29;;;;;;;5.43;0.75;;;16.00;99.90;;;;;;5030150;28;20100;-79
2022/07/27 07:22:56;;;;;;;5.28;1.17;;;16.00;99.90;;;;;;5040225;28;20098;-80
2022/07/27 07:25:22;;;;;;;3.33;1.02;;;16.00;99.90;;;;;;5033579;28;20067;-80
2022/07/27 07:27:48;;;;;;;3.28;0.57;;;16.20;99.90;;;;;;5040591;28;20045;-80
2022/07/27 07:30:14;;;;;;;3.72;0.70;;;16.40;99.90;;;;;;5036796;28;20033;-80
2022/07/27 07:32:40;;;;;;;6.28;0.52;;;16.70;99.90;;;;;;5040243;28;20041;-81
2022/07/27 07:35:06;;;;;;;2.63;0.60;;;16.90;99.90;;;;;;5044677;28;20047;-80
2022/07/27 07:37:32;;;;;;;3.22;0.43;;;17.10;99.90;;;;;;5039838;28;20053;-80
2022/07/27 07:39:58;;;;;;;6.20;1.23;;;17.40;99.90;;;;;;5035090;28;20060;-78
2022/07/27 07:42:24;;;;;;;3.97;0.60;;;17.60;99.90;;;;;;5037986;28;21024;-80
2022/07/27 07:44:50;;;;;;;6.07;0.88;;;17.80;99.90;;;;;;5035829;28;20053;-81
2022/07/27 07:47:16;;;;;;;4.28;0.63;;;18.00;99.90;;;;;;5034653;28;20045;-80
2022/07/27 07:49:41;;;;;;;5.47;0.50;;;18.50;99.90;;;;;;5032934;28;20036;-78
2022/07/27 07:52:07;;;;;;;2.80;0.50;;;19.10;99.90;;;;;;5038416;28;20515;-80
2022/07/27 07:54:33;;;;;;;7.45;0.80;;;19.60;99.90;;;;;;5035388;28;20037;-78
2022/07/27 07:56:59;;;;;;;3.35;0.60;;;20.10;99.90;;;;;;5036028;28;20037;-80
2022/07/27 07:59:24;;;;;;;3.42;1.02;;;20.30;99.90;;;;;;5035979;28;20053;-80
2022/07/27 08:01:50;;;;;;;5.20;0.75;;;20.80;99.90;;;;;;5037660;28;20041;-80
2022/07/27 08:04:15;;;;;;;4.35;0.55;;;21.20;99.90;;;;;;5046633;28;20033;-81
2022/07/27 08:06:41;;;;;;;6.00;0.90;;;21.50;99.90;;;;;;5037788;28;20030;-81
2022/07/27 08:09:07;;;;;;;4.50;0.70;;;21.70;99.90;;;;;;5025999;28;20101;-78
2022/07/27 08:11:33;;;;;;;3.65;0.60;;;22.00;99.90;;;;;;5036959;28;20214;-80
2022/07/27 08:13:58;;;;;;;3.72;0.88;;;22.20;99.90;;;;;;5043791;28;20557;-80
2022/07/27 08:16:24;;;;;;;5.20;0.60;;;22.40;99.90;;;;;;5040613;28;20048;-77
2022/07/27 08:18:51;;;;;;;5.55;0.77;;;22.20;99.90;;;;;;5033145;28;20055;-81
2022/07/27 08:21:16;;;;;;;5.05;0.90;;;22.30;99.90;;;;;;5039227;28;20506;-78
2022/07/27 08:23:42;;;;;;;8.48;1.02;;;22.50;99.90;;;;;;5045061;28;20041;-78
2022/07/27 08:26:07;;;;;;;6.00;0.80;;;22.80;99.90;;;;;;5041410;28;20052;-80
2022/07/27 08:28:33;;;;;;;2.78;0.70;;;23.10;99.90;;;;;;5042511;28;20096;-77
2022/07/27 08:30:58;;;;;;;6.35;0.47;;;23.30;99.90;;;;;;5038767;28;20075;-78
2022/07/27 08:33:24;;;;;;;7.10;0.88;;;23.20;99.90;;;;;;5030893;28;20041;-81
2022/07/27 08:35:51;;;;;;;6.88;1.00;;;23.00;99.90;;;;;;5041726;28;20899;-80
2022/07/27 08:38:17;;;;;;;6.00;0.80;;;22.70;99.90;;;;;;5041545;28;20609;-81
2022/07/27 08:40:42;;;;;;;5.85;0.93;;;22.70;99.90;;;;;;5033200;28;20139;-79
2022/07/27 08:43:09;;;;;;;5.45;0.77;;;23.10;99.90;;;;;;5039758;28;20392;-80
2022/07/27 08:45:36;;;;;;;8.25;1.35;;;23.40;99.90;;;;;;5037240;28;20041;-79
2022/07/27 08:48:02;;;;;;;4.90;0.60;;;23.20;99.90;;;;;;5043117;28;20045;-78
2022/07/27 08:50:29;;;;;;;5.53;1.42;;;22.90;99.90;;;;;;5022642;28;20746;-81
2022/07/27 08:53:07;;;;;;;3.97;0.80;;;22.50;99.90;;;;;;5038749;28;20180;-79
2022/07/27 08:55:36;;;;;;;5.30;1.90;;;22.10;99.90;;;;;;5040795;28;20475;-80
2022/07/27 08:58:10;;;;;;;6.20;1.08;;;21.70;99.90;;;;;;5037218;28;20087;-80
2022/07/27 09:00:38;;;;;;;5.82;0.70;;;21.40;99.90;;;;;;5040007;28;20053;-79
2022/07/27 09:03:04;;;;;;;4.53;0.88;;;21.00;99.90;;;;;;5023158;28;20519;-79
2022/07/27 09:05:30;;;;;;;3.78;0.52;;;20.80;99.90;;;;;;5046143;28;20073;-80
2022/07/27 09:08:09;;;;;;;14.48;1.20;;;20.60;99.90;;;;;;5027620;28;20040;-78
2022/07/27 09:10:37;;;;;;;3.88;0.73;;;20.50;99.90;;;;;;5038235;28;20049;-80
2022/07/27 09:13:26;;;;;;;3.45;0.73;;;20.30;99.90;;;;;;5037956;28;20082;-79
2022/07/27 09:16:02;;;;;;;5.75;0.60;;;20.20;99.90;;;;;;5032957;28;20040;-78
2022/07/27 09:18:29;;;;;;;4.88;0.95;;;20.00;99.90;;;;;;5037461;28;20116;-79
2022/07/27 09:21:22;;;;;;;5.25;0.50;;;19.90;99.90;;;;;;5030133;28;20087;-78
2022/07/27 09:23:48;;;;;;;9.20;0.90;;;19.80;99.90;;;;;;5032157;28;20045;-79
2022/07/27 09:26:19;;;;;;;4.78;0.95;;;19.80;99.90;;;;;;5034385;28;20060;-79
2022/07/27 09:28:45;;;;;;;4.38;0.52;;;19.80;99.90;;;;;;5055305;28;20103;-79
2022/07/27 09:31:13;;;;;;;2.90;0.60;;;19.80;99.90;;;;;;5032302;28;20136;-81
2022/07/27 09:33:44;;;;;;;5.07;0.60;;;20.20;99.90;;;;;;5036023;28;20057;-80
2022/07/27 09:36:11;;;;;;;3.05;0.50;;;20.80;99.90;;;;;;5035633;28;20670;-79
2022/07/27 09:38:48;;;;;;;3.13;0.60;;;21.50;99.90;;;;;;5031201;28;20545;-79
2022/07/27 09:41:14;;;;;;;1.73;0.55;;;21.80;99.90;;;;;;5016406;28;21794;-83
2022/07/27 09:43:53;;;;;;;6.38;0.50;;;21.80;99.90;;;;;;5038914;28;20048;-79
2022/07/27 09:46:34;;;;;;;2.70;0.70;;;21.60;99.90;;;;;;5034352;28;20064;-80
2022/07/27 09:49:01;;;;;;;6.63;0.68;;;21.60;99.90;;;;;;5027931;28;20045;-79
2022/07/27 09:51:27;;;;;;;4.78;0.52;;;21.80;99.90;;;;;;5036107;28;20503;-79
2022/07/27 09:53:54;;;;;;;4.00;0.50;;;21.90;99.90;;;;;;5052583;28;20057;-79
2022/07/27 09:56:30;;;;;;;6.32;0.52;;;21.80;99.90;;;;;;5028051;28;20136;-79
2022/07/27 09:59:01;;;;;;;6.00;0.73;;;21.70;99.90;;;;;;5027704;28;20049;-79
2022/07/27 10:01:33;;;;;;;9.90;1.15;;;21.60;99.90;;;;;;5048810;28;20107;-78
2022/07/27 10:04:05;;;;;;;2.78;0.30;;;21.70;99.90;;;;;;5026563;28;20520;-79
2022/07/27 10:06:31;;;;;;;3.30;0.40;;;21.60;99.90;;;;;;5018005;28;20044;-79
2022/07/27 10:08:58;;;;;;;3.58;0.68;;;21.50;99.90;;;;;;5034540;28;20042;-78
2022/07/27 10:11:24;;;;;;;5.18;0.75;;;21.30;99.90;;;;;;5031821;28;20052;-82
2022/07/27 10:13:52;;;;;;;2.85;0.40;;;21.60;99.90;;;;;;5033447;28;20053;-80
2022/07/27 10:16:26;;;;;;;7.22;0.80;;;21.80;99.90;;;;;;5021541;28;20164;-77
2022/07/27 10:19:14;;;;;;;3.13;0.63;;;22.10;99.90;;;;;;5034167;28;20116;-79
2022/07/27 10:21:43;;;;;;;1.80;0.45;;;22.10;99.90;;;;;;5026447;28;20163;-80
2022/07/27 10:24:12;;;;;;;4.80;0.70;;;22.10;99.90;;;;;;5033058;28;20122;-80
2022/07/27 10:26:42;;;;;;;3.38;0.57;;;22.10;99.90;;;;;;5048548;28;20083;-80
2022/07/27 10:29:13;;;;;;;1.75;0.43;;;22.10;99.90;;;;;;5038902;28;20135;-80
2022/07/27 10:31:41;;;;;;;4.20;0.30;;;22.10;99.90;;;;;;5043694;28;20036;-80
2022/07/27 10:34:09;;;;;;;3.78;0.38;;;22.20;99.90;;;;;;5037159;28;20535;-79
2022/07/27 10:36:34;;;;;;;4.43;0.40;;;22.20;99.90;;;;;;5053919;28;20042;-80
2022/07/27 10:39:04;;;;;;;13.23;0.80;;;22.20;99.90;;;;;;5043681;28;20553;-80
2022/07/27 10:41:32;;;;;;;4.15;0.45;;;22.20;99.90;;;;;;5048154;28;22537;-80
2022/07/27 10:44:13;;;;;;;5.95;0.50;;;22.30;99.90;;;;;;5043365;28;20040;-79
2022/07/27 10:46:59;;;;;;;2.78;0.70;;;22.40;99.90;;;;;;5036065;28;20181;-80
2022/07/27 10:49:34;;;;;;;4.22;0.52;;;22.40;99.90;;;;;;5046243;28;20041;-80
2022/07/27 10:52:38;;;;;;;3.58;1.00;;;22.50;99.90;;;;;;5038172;28;20048;-80
2022/07/27 10:55:04;;;;;;;3.63;0.40;;;22.60;99.90;;;;;;5036194;28;20052;-78
2022/07/27 10:57:30;;;;;;;5.53;0.80;;;22.60;99.90;;;;;;5042205;28;20045;-79
2022/07/27 10:59:56;;;;;;;3.72;0.85;;;22.70;99.90;;;;;;5032967;28;20155;-80
2022/07/27 11:02:42;;;;;;;3.17;0.88;;;22.70;99.90;;;;;;5040566;28;20045;-78
2022/07/27 11:05:10;;;;;;;4.00;0.70;;;22.40;98.90;;;;;;5028666;28;20037;-79
2022/07/27 11:07:43;;;;;;;3.88;0.90;;;22.20;99.90;;;;;;5038518;28;20055;-80
2022/07/27 11:10:09;;;;;;;1.92;0.30;;;21.90;99.50;;;;;;5037594;28;20033;-79
2022/07/27 11:12:36;;;;;;;2.10;0.40;;;21.60;99.90;;;;;;5046376;28;20071;-79
2022/07/27 11:15:03;;;;;;;6.25;0.63;;;21.70;99.90;;;;;;5023559;28;20057;-78
2022/07/27 11:17:30;;;;;;;3.17;0.70;;;21.30;99.90;;;;;;5040949;28;20045;-78
2022/07/27 11:20:01;;;;;;;3.50;0.60;;;21.20;99.90;;;;;;5024966;28;20047;-78
2022/07/27 11:22:39;;;;;;;3.33;0.40;;;21.20;99.90;;;;;;5030208;28;20046;-79
2022/07/27 11:25:06;;;;;;;4.18;0.60;;;21.10;99.90;;;;;;5027660;28;20051;-80
2022/07/27 11:27:43;;;;;;;3.22;0.70;;;21.30;99.90;;;;;;5023666;28;20108;-80
2022/07/27 11:30:27;;;;;;;2.78;0.40;;;21.30;99.90;;;;;;5043227;28;20063;-78
2022/07/27 11:32:52;;;;;;;4.70;0.80;;;21.20;99.90;;;;;;5039564;28;20040;-79
2022/07/27 11:35:18;;;;;;;2.97;0.60;;;21.10;99.90;;;;;;5041338;28;20047;-80
2022/07/27 11:38:05;;;;;;;1.65;0.38;;;21.20;99.90;;;;;;5042415;28;20056;-78
2022/07/27 11:40:47;;;;;;;2.80;0.75;;;21.70;99.90;;;;;;5046035;28;20036;-80
2022/07/27 11:43:33;;;;;;;3.13;0.38;;;22.20;99.90;;;;;;5045285;28;20049;-79
2022/07/27 11:46:28;;;;;;;3.50;0.45;;;22.50;99.90;;;;;;5033057;28;20124;-80
2022/07/27 11:48:59;;;;;;;2.25;0.40;;;22.50;99.90;;;;;;5053253;28;20041;-80
2022/07/27 11:51:25;;;;;;;2.67;0.57;;;22.30;99.80;;;;;;5028648;28;20040;-80
2022/07/27 11:53:58;;;;;;;2.85;0.73;;;22.30;98.70;;;;;;5037734;28;20075;-81
2022/07/27 11:56:26;;;;;;;1.45;0.35;;;22.10;98.50;;;;;;5012386;28;20116;-78
2022/07/27 11:59:02;;;;;;;3.05;0.95;;;22.00;98.30;;;;;;5023413;28;20049;-78
2022/07/27 12:01:33;;;;;;;2.30;0.43;;;21.90;98.10;;;;;;5023006;28;20053;-80
2022/07/27 12:04:04;;;;;;;0.90;0.20;;;21.80;98.60;;;;;;5017265;28;20691;-79
2022/07/27 12:06:34;;;;;;;3.83;0.40;;;21.90;98.10;;;;;;5021660;28;20040;-77
2022/07/27 12:09:02;;;;;;;2.75;0.30;;;21.70;97.70;;;;;;5024434;28;20080;-80
2022/07/27 12:11:43;;;;;;;4.70;0.40;;;21.60;97.60;;;;;;5014801;28;20065;-78
2022/07/27 12:14:12;;;;;;;1.58;0.40;;;21.60;98.00;;;;;;5022883;28;20052;-79
2022/07/27 12:16:38;;;;;;;2.35;0.28;;;21.60;98.60;;;;;;5025980;28;20065;-77
2022/07/27 12:19:04;;;;;;;5.28;0.47;;;21.70;98.60;;;;;;5026405;28;20171;-79
2022/07/27 12:21:32;;;;;;;2.33;0.30;;;21.80;98.40;;;;;;5024748;28;20064;-80
2022/07/27 12:24:00;;;;;;;1.25;0.30;;;21.90;98.10;;;;;;5027358;28;20037;-80
2022/07/27 12:26:26;;;;;;;1.83;0.38;;;22.10;98.30;;;;;;5027146;28;20113;-80
2022/07/27 12:29:09;;;;;;;2.95;0.30;;;22.20;98.70;;;;;;5023124;28;20042;-81
2022/07/27 12:31:36;;;;;;;4.18;0.63;;;22.50;98.20;;;;;;5038083;28;20041;-82
2022/07/27 12:34:05;;;;;;;1.10;0.30;;;22.80;97.80;;;;;;5022903;28;20133;-79
2022/07/27 12:36:31;;;;;;;2.10;0.40;;;23.10;97.40;;;;;;5022137;28;20041;-81
2022/07/27 12:38:57;;;;;;;2.67;0.43;;;23.10;96.20;;;;;;5028979;28;20037;-80
2022/07/27 12:41:25;;;;;;;2.42;0.30;;;22.90;95.80;;;;;;5027505;28;20128;-79
2022/07/27 12:44:11;;;;;;;2.35;0.30;;;23.10;95.70;;;;;;5028643;28;20049;-81
2022/07/27 12:46:53;;;;;;;5.78;0.22;;;22.80;95.40;;;;;;5024005;28;20045;-78
2022/07/27 12:49:28;;;;;;;4.10;0.70;;;22.90;95.70;;;;;;5025080;28;21019;-81
2022/07/27 12:52:07;;;;;;;1.90;0.28;;;23.30;97.50;;;;;;5037776;28;20102;-80
2022/07/27 12:54:33;;;;;;;2.95;0.63;;;23.20;95.60;;;;;;5037526;28;20037;-80